Flight Track Log - Related Links

Times and Time Zones

All times are in EDT time to prevent confusion due to time zone crossing. See the N267RH flight status page for this flight to view local times or setup timezone preferences in your user account.

Time Position Orientation Groundspeed Altitude Reporting Facility
EDT Latitude Longitude Course Direction KTS MPH feet Rate Location/Type
Tue 02:26:34 PM 34.3011 -88.8486 306° West 119 137 2,600  Level Memphis Center
Tue 02:27:00 PM 34.3726 -88.9209 306° West  Level FlightAware Approximate
Tue 02:27:34 PM 34.3203 -88.8758 310° West 119 137 3,300  Level Memphis Center
Tue 02:28:00 PM 34.3888 -88.9480 306° West  Level FlightAware Approximate
Tue 02:28:34 PM 34.3372 -88.9033 307° West 113 130 3,900  Level Memphis Center
Tue 02:29:34 PM 34.3544 -88.9306 307° West 107 123 4,400 450 Climbing Memphis Center
Tue 02:30:34 PM 34.3733 -88.9556 312° West 107 123 4,800 400 Climbing Memphis Center
Tue 02:31:34 PM 34.3906 -88.9853 305° West 107 123 5,200 450 Climbing Memphis Center
Tue 02:32:34 PM 34.4075 -89.0103 309° West 107 123 5,700 400 Climbing Memphis Center
Tue 02:33:34 PM 34.4264 -89.0378 310° West 107 123 6,000 150 Climbing Memphis Center
Tue 02:34:34 PM 34.4478 -89.0703 309° West 112 129 6,000  Level Memphis Center
Tue 02:35:34 PM 34.4711 -89.1025 311° West 117 135 6,000 150 Level Memphis Center
Tue 02:36:34 PM 34.4900 -89.1325 307° West 117 135 6,300 350 Climbing Memphis Center
Tue 02:37:34 PM 34.5050 -89.1575 306° West 112 129 6,700 350 Climbing Memphis Center
Tue 02:38:34 PM 34.5239 -89.1850 310° West 106 122 7,000 350 Climbing Memphis Center
Tue 02:39:34 PM 34.5431 -89.2125 310° West 106 122 7,400 400 Climbing Memphis Center
Tue 02:40:34 PM 34.5578 -89.2350 308° West 101 116 7,800 250 Climbing Memphis Center
Tue 02:41:34 PM 34.5725 -89.2575 308° West 96 110 7,900 50 Climbing Memphis Center
Tue 02:42:34 PM 34.5917 -89.2850 310° West 101 116 7,900  Level Memphis Center
Tue 02:43:34 PM 34.6108 -89.3175 306° West 112 129 7,900  Level Memphis Center
Tue 02:44:34 PM 34.6278 -89.3475 304° West 112 129 7,900  Level Memphis Center
Tue 02:45:34 PM 34.6508 -89.3750 316° Northwest 112 129 7,900 -250 Level Memphis Center
Tue 02:46:34 PM 34.6844 -89.3922 337° Northwest 112 129 7,400 -750 Descending Memphis Center
Tue 02:47:34 PM 34.7242 -89.4122 338° Northwest 136 157 6,400 -1,000 Descending Memphis Center
Tue 02:48:34 PM 34.7597 -89.4369 330° Northwest 150 173 5,400 -800 Descending Memphis Center
Tue 02:49:34 PM 34.7997 -89.4669 328° Northwest 150 173 4,800 1,300 Descending Memphis Center
Tue 02:50:34 PM 34.8353 -89.4919 330° Northwest 150 173 8,000 -373 Climbing Memphis Center
Tue 02:52:15 PM 34.8833 -89.5333 325° Northwest 136 157 3,800 -1,756 Descending KMEM
Tue 02:53:18 PM 34.9333 -89.5667 331° Northwest 151 174 3,200 -435 Descending KMEM
Tue 02:54:19 PM 34.9500 -89.6000 301° West 144 166 2,900 -100 Descending KMEM
Tue 02:56:18 PM 35.0167 -89.6500 328° Northwest 131 151 2,900  Level KMEM
Tue 02:57:18 PM 35.0333 -89.6833 301° West 133 153 2,900  Level KMEM
Tue 02:58:24 PM 35.0667 -89.7167 321° Northwest 134 154 2,900  Level KMEM
Tue 02:59:19 PM 35.1000 -89.7500 321° Northwest 134 154 2,900  Level KMEM
Tue 03:00:21 PM 35.1167 -89.7667 321° Northwest 132 152 2,900 -101 Level KMEM
Tue 03:01:18 PM 35.1667 -89.7833 345° North 146 168 2,700 -308 Descending KMEM
Tue 03:02:18 PM 35.2000 -89.8000 338° Northwest 142 163 2,300 -195 Descending KMEM
Tue 03:03:21 PM 35.2167 -89.8333 301° West 112 129 2,300 -49 Level KMEM
Tue 03:04:21 PM 35.2167 -89.8667 270° West 106 122 2,200  Descending KMEM
Tue 03:05:24 PM 35.2000 -89.9000 239° Southwest 104 120 2,300 48 Climbing KMEM
Tue 03:06:27 PM 35.1833 -89.9333 239° Southwest 104 120 2,300  Level KMEM
Tue 03:07:18 PM 35.1667 -89.9667 239° Southwest 100 115 2,300 -162 Level KMEM
Tue 03:08:18 PM 35.1500 -89.9667 180° South 105 121 2,000 -390 Descending KMEM
Tue 03:09:21 PM 35.1167 -89.9833 202° Southwest 98 113 1,500 -450 Descending KMEM
Tue 03:10:18 PM 35.1000 -89.9667 141° Southeast 99 114 1,100 -458 Descending KMEM
Tue 03:11:19 PM 35.0667 -89.9667 180° South 98 113 600 -492 Descending KMEM
Tue 03:13:00 PM 35.0424 -89.9767 228° Southwest  Level Estimated
Tue 03:20:00 PM 35.0424 -89.9767 228° Southwest  Level Estimated
Tue 03:21:00 PM 35.0424 -89.9767 228° Southwest  Level Estimated
Tue 03:22:00 PM 35.0424 -89.9767 228° Southwest  Level Estimated
Tue 03:23:00 PM 35.0424 -89.9767 228° Southwest  Level Estimated

Login

Don't have an account? Register now (free) for customized features, flight alerts, and more!